createdAt,value
2023-04-02T00:00:39.582Z,984.76
2023-04-02T00:01:39.636Z,984.71
2023-04-02T00:02:39.664Z,984.75
2023-04-02T00:03:39.623Z,984.77
2023-04-02T00:04:39.602Z,984.80
2023-04-02T00:05:39.564Z,984.77
2023-04-02T00:06:39.551Z,984.79
2023-04-02T00:07:39.568Z,984.83
2023-04-02T00:08:39.535Z,984.80
2023-04-02T00:09:39.598Z,984.84
2023-04-02T00:10:39.492Z,984.87
2023-04-02T00:11:39.467Z,984.84
2023-04-02T00:12:39.459Z,984.98
2023-04-02T00:13:39.451Z,984.94
2023-04-02T00:14:39.444Z,985.00
2023-04-02T00:15:39.437Z,985.03
2023-04-02T00:16:39.443Z,984.98
2023-04-02T00:17:39.400Z,985.01
2023-04-02T00:18:39.411Z,985.04
2023-04-02T00:19:39.348Z,985.01
2023-04-02T00:20:39.366Z,985.11
2023-04-02T00:21:39.978Z,985.08
2023-04-02T00:22:39.348Z,985.12
2023-04-02T00:23:39.356Z,985.15
2023-04-02T00:24:39.341Z,985.18
2023-04-02T00:25:39.317Z,985.23
2023-04-02T00:26:39.293Z,985.20
2023-04-02T00:27:39.268Z,985.20
2023-04-02T00:28:39.258Z,985.26
2023-04-02T00:29:39.270Z,985.22
2023-04-02T00:30:39.250Z,985.27
2023-04-02T00:31:39.291Z,985.30
2023-04-02T00:32:39.290Z,985.36
2023-04-02T00:33:39.238Z,985.33
2023-04-02T00:34:39.227Z,985.27
2023-04-02T00:35:39.259Z,985.34
2023-04-02T00:36:39.184Z,985.33
2023-04-02T00:37:39.429Z,985.35
2023-04-02T00:38:39.178Z,985.37
2023-04-02T00:39:39.141Z,985.46
2023-04-02T00:40:39.140Z,985.39
2023-04-02T00:41:39.224Z,985.35
2023-04-02T00:42:39.190Z,985.40
2023-04-02T00:43:39.132Z,985.42
2023-04-02T00:44:39.136Z,985.41
2023-04-02T00:45:39.121Z,985.42
2023-04-02T00:46:39.083Z,985.50
2023-04-02T00:47:39.252Z,985.49
2023-04-02T00:48:39.071Z,985.46
2023-04-02T00:49:39.205Z,985.51
2023-04-02T00:50:40.045Z,985.59
2023-04-02T00:51:39.059Z,985.53
2023-04-02T00:52:39.031Z,985.63
2023-04-02T00:53:38.993Z,985.59
2023-04-02T00:54:39.023Z,985.65
2023-04-02T00:55:38.964Z,985.67
2023-04-02T00:56:38.967Z,985.70
2023-04-02T00:57:38.968Z,985.62
2023-04-02T00:58:38.942Z,985.65
2023-04-02T00:59:38.937Z,985.67
2023-04-02T01:00:38.940Z,985.63
2023-04-02T01:01:38.998Z,985.71
2023-04-02T01:02:38.990Z,985.69
2023-04-02T01:03:39.035Z,985.76
2023-04-02T01:04:38.859Z,985.79
2023-04-02T01:05:39.875Z,985.88
2023-04-02T01:06:38.860Z,985.81
2023-04-02T01:07:38.824Z,985.76
2023-04-02T01:08:38.850Z,985.79
2023-04-02T01:09:38.813Z,985.85
2023-04-02T01:10:38.781Z,985.88
2023-04-02T01:11:38.803Z,985.84
2023-04-02T01:12:38.759Z,985.90
2023-04-02T01:13:38.814Z,985.85
2023-04-02T01:14:38.753Z,985.89
2023-04-02T01:15:38.884Z,985.87
2023-04-02T01:16:38.760Z,985.90
2023-04-02T01:17:38.796Z,985.95
2023-04-02T01:18:38.715Z,986.02
2023-04-02T01:19:38.705Z,986.02
2023-04-02T01:20:38.753Z,986.01
2023-04-02T01:21:38.687Z,985.97
2023-04-02T01:22:38.714Z,986.08
2023-04-02T01:23:38.641Z,986.07
2023-04-02T01:24:38.782Z,986.14
2023-04-02T01:25:38.673Z,986.09
2023-04-02T01:26:38.608Z,986.10
2023-04-02T01:27:39.289Z,986.09
2023-04-02T01:28:38.612Z,986.15
2023-04-02T01:29:38.663Z,986.15
2023-04-02T01:30:38.563Z,986.06
2023-04-02T01:31:38.635Z,986.18
2023-04-02T01:32:38.591Z,986.22
2023-04-02T01:33:38.534Z,986.22
2023-04-02T01:34:39.639Z,986.19
2023-04-02T01:35:38.544Z,986.27
2023-04-02T01:36:38.528Z,986.25
2023-04-02T01:37:38.512Z,986.31
2023-04-02T01:38:38.522Z,986.42
2023-04-02T01:39:38.622Z,986.36
2023-04-02T01:40:38.485Z,986.40
2023-04-02T01:41:38.592Z,986.47
2023-04-02T01:42:38.546Z,986.49
2023-04-02T01:43:38.468Z,986.48
2023-04-02T01:44:38.503Z,986.56
2023-04-02T01:45:38.413Z,986.56
2023-04-02T01:46:38.475Z,986.58
2023-04-02T01:47:38.605Z,986.59
2023-04-02T01:48:38.395Z,986.66
2023-04-02T01:49:38.487Z,986.67
2023-04-02T01:50:38.557Z,986.69
2023-04-02T01:51:38.359Z,986.63
2023-04-02T01:52:38.346Z,986.72
2023-04-02T01:53:38.351Z,986.73
2023-04-02T01:54:38.347Z,986.69
2023-04-02T01:55:39.259Z,986.78
2023-04-02T01:56:38.261Z,986.79
2023-04-02T01:57:38.431Z,986.80
2023-04-02T01:58:38.250Z,986.77
2023-04-02T01:59:38.238Z,986.83
2023-04-02T02:00:38.306Z,986.86
2023-04-02T02:01:38.267Z,986.82
2023-04-02T02:02:38.356Z,986.89
2023-04-02T02:03:38.228Z,986.85
2023-04-02T02:04:38.307Z,986.92
2023-04-02T02:05:38.157Z,986.91
2023-04-02T02:06:38.228Z,986.92
2023-04-02T02:07:38.168Z,986.97
2023-04-02T02:08:38.177Z,987.01
2023-04-02T02:09:38.267Z,987.03
2023-04-02T02:10:38.187Z,987.05
2023-04-02T02:11:38.125Z,986.99
2023-04-02T02:12:38.121Z,987.09
2023-04-02T02:13:39.087Z,987.07
2023-04-02T02:14:38.246Z,987.12
2023-04-02T02:15:38.111Z,987.11
2023-04-02T02:16:38.101Z,987.15
2023-04-02T02:17:38.095Z,987.15
2023-04-02T02:18:38.043Z,987.16
2023-04-02T02:19:38.030Z,987.20
2023-04-02T02:20:38.001Z,987.20
2023-04-02T02:21:38.119Z,987.22
2023-04-02T02:22:38.001Z,987.14
2023-04-02T02:23:38.009Z,987.26
2023-04-02T02:24:38.018Z,987.30
2023-04-02T02:25:38.150Z,987.32
2023-04-02T02:26:37.965Z,987.33
2023-04-02T02:27:37.924Z,987.33
2023-04-02T02:28:37.913Z,987.37
2023-04-02T02:29:37.940Z,987.41
2023-04-02T02:30:37.923Z,987.44
2023-04-02T02:31:37.876Z,987.44
2023-04-02T02:32:37.884Z,987.41
2023-04-02T02:33:37.845Z,987.54
2023-04-02T02:34:37.837Z,987.53
2023-04-02T02:35:38.129Z,987.51
2023-04-02T02:36:37.839Z,987.52
2023-04-02T02:37:37.877Z,987.51
2023-04-02T02:38:37.797Z,987.59
2023-04-02T02:39:37.775Z,987.55
2023-04-02T02:40:37.802Z,987.61
2023-04-02T02:41:37.811Z,987.69
2023-04-02T02:42:37.806Z,987.69
2023-04-02T02:43:37.849Z,987.71
2023-04-02T02:44:37.763Z,987.76
2023-04-02T02:45:37.976Z,987.71
2023-04-02T02:46:37.737Z,987.75
2023-04-02T02:47:37.727Z,987.79
2023-04-02T02:48:37.775Z,987.80
2023-04-02T02:49:37.683Z,987.80
2023-04-02T02:50:37.692Z,987.84
2023-04-02T02:51:37.702Z,987.81
2023-04-02T02:52:37.655Z,987.91
2023-04-02T02:53:37.650Z,987.92
2023-04-02T02:54:37.688Z,987.90
2023-04-02T02:55:38.004Z,987.95
2023-04-02T02:56:37.759Z,988.00
2023-04-02T02:57:37.582Z,987.97
2023-04-02T02:58:37.565Z,988.00
2023-04-02T02:59:37.610Z,988.01
2023-04-02T03:00:37.560Z,988.03
2023-04-02T03:01:37.575Z,988.02
2023-04-02T03:02:37.684Z,988.06
2023-04-02T03:03:37.713Z,988.15
2023-04-02T03:04:37.506Z,988.10
2023-04-02T03:05:37.700Z,988.10
2023-04-02T03:06:37.485Z,988.06
2023-04-02T03:07:37.533Z,988.15
2023-04-02T03:08:37.506Z,988.19
2023-04-02T03:09:37.441Z,988.25
2023-04-02T03:10:37.462Z,988.25
2023-04-02T03:11:37.447Z,988.34
2023-04-02T03:12:37.439Z,988.17
2023-04-02T03:13:37.438Z,988.23
2023-04-02T03:14:37.485Z,988.33
2023-04-02T03:15:37.654Z,988.36
2023-04-02T03:16:37.408Z,988.34
2023-04-02T03:17:37.369Z,988.37
2023-04-02T03:18:37.362Z,988.40
2023-04-02T03:19:37.397Z,988.45
2023-04-02T03:20:37.333Z,988.47
2023-04-02T03:21:37.304Z,988.47
2023-04-02T03:22:37.387Z,988.49
2023-04-02T03:23:37.284Z,988.54
2023-04-02T03:24:37.308Z,988.60
2023-04-02T03:25:37.404Z,988.62
2023-04-02T03:26:37.294Z,988.59
2023-04-02T03:27:37.255Z,988.67
2023-04-02T03:28:37.273Z,988.70
2023-04-02T03:29:37.243Z,988.56
2023-04-02T03:30:37.247Z,988.69
2023-04-02T03:31:37.798Z,988.65
2023-04-02T03:32:37.233Z,988.70
2023-04-02T03:33:37.191Z,988.74
2023-04-02T03:34:37.209Z,988.73
2023-04-02T03:35:37.465Z,988.74
2023-04-02T03:36:37.182Z,988.80
2023-04-02T03:37:37.185Z,988.82
2023-04-02T03:38:37.216Z,988.80
2023-04-02T03:39:37.132Z,988.80
2023-04-02T03:40:37.132Z,988.86
2023-04-02T03:41:37.112Z,988.87
2023-04-02T03:42:37.088Z,988.87
2023-04-02T03:43:37.158Z,988.92
2023-04-02T03:44:37.090Z,988.99
2023-04-02T03:45:37.272Z,988.94
2023-04-02T03:46:37.110Z,988.99
2023-04-02T03:47:37.059Z,989.09
2023-04-02T03:48:37.032Z,989.10
2023-04-02T03:49:37.350Z,989.12
2023-04-02T03:50:37.004Z,989.10
2023-04-02T03:51:37.003Z,989.14
2023-04-02T03:52:36.978Z,989.15
2023-04-02T03:53:36.968Z,989.10
2023-04-02T03:54:37.967Z,989.16
2023-04-02T03:55:37.236Z,989.20
2023-04-02T03:56:37.935Z,989.18
2023-04-02T03:57:36.941Z,989.20
2023-04-02T03:58:36.936Z,989.16
2023-04-02T03:59:36.873Z,989.23
2023-04-02T04:00:36.914Z,989.23
2023-04-02T04:01:36.926Z,989.30
2023-04-02T04:02:36.912Z,989.28
2023-04-02T04:03:36.958Z,989.39
2023-04-02T04:04:36.904Z,989.36
2023-04-02T04:05:37.013Z,989.38
2023-04-02T04:06:36.822Z,989.43
2023-04-02T04:07:36.878Z,989.40
2023-04-02T04:08:36.796Z,989.49
2023-04-02T04:09:36.806Z,989.52
2023-04-02T04:10:36.766Z,989.50
2023-04-02T04:11:36.850Z,989.52
2023-04-02T04:12:36.728Z,989.50
2023-04-02T04:13:36.776Z,989.54
2023-04-02T04:14:36.732Z,989.58
2023-04-02T04:15:37.034Z,989.54
2023-04-02T04:16:36.772Z,989.60
2023-04-02T04:17:36.721Z,989.62
2023-04-02T04:18:36.712Z,989.66
2023-04-02T04:19:36.699Z,989.69
2023-04-02T04:20:36.672Z,989.67
2023-04-02T04:21:36.700Z,989.75
2023-04-02T04:22:36.648Z,989.70
2023-04-02T04:23:36.622Z,989.79
2023-04-02T04:24:36.620Z,989.80
2023-04-02T04:25:36.853Z,989.82
2023-04-02T04:26:36.605Z,989.85
2023-04-02T04:27:36.588Z,989.84
2023-04-02T04:28:36.676Z,989.87
2023-04-02T04:29:36.581Z,989.87
2023-04-02T04:30:36.593Z,989.89
2023-04-02T04:31:36.634Z,989.92
2023-04-02T04:32:36.591Z,989.91
2023-04-02T04:33:36.527Z,989.98
2023-04-02T04:34:36.504Z,989.97
2023-04-02T04:35:36.755Z,990.03
2023-04-02T04:36:36.529Z,990.03
2023-04-02T04:37:36.554Z,989.95
2023-04-02T04:38:36.462Z,990.07
2023-04-02T04:39:36.447Z,990.09
2023-04-02T04:40:37.444Z,990.14
2023-04-02T04:41:36.471Z,990.17
2023-04-02T04:42:36.437Z,990.21
2023-04-02T04:43:36.426Z,990.24
2023-04-02T04:44:36.381Z,990.17
2023-04-02T04:45:36.681Z,990.26
2023-04-02T04:46:36.395Z,990.33
2023-04-02T04:47:36.446Z,990.27
2023-04-02T04:48:36.522Z,990.33
2023-04-02T04:49:38.094Z,990.30
2023-04-02T04:50:36.359Z,990.35
2023-04-02T04:51:36.361Z,990.41
2023-04-02T04:52:36.316Z,990.32
2023-04-02T04:53:36.304Z,990.56
2023-04-02T04:54:36.302Z,990.56
2023-04-02T04:55:36.486Z,990.49
2023-04-02T04:56:36.278Z,990.50
2023-04-02T04:57:36.291Z,990.60
2023-04-02T04:58:36.287Z,990.53
2023-04-02T04:59:36.270Z,990.64
2023-04-02T05:00:36.223Z,990.59
2023-04-02T05:01:36.255Z,990.63
2023-04-02T05:02:36.240Z,990.66
2023-04-02T05:03:36.222Z,990.64
2023-04-02T05:04:36.230Z,990.59
2023-04-02T05:05:36.562Z,990.64
2023-04-02T05:06:36.175Z,990.74
2023-04-02T05:07:36.170Z,990.68
2023-04-02T05:08:36.155Z,990.70
2023-04-02T05:09:36.141Z,990.67
2023-04-02T05:10:36.228Z,990.79
2023-04-02T05:11:36.118Z,990.79
2023-04-02T05:12:36.103Z,990.82
2023-04-02T05:13:36.125Z,990.82
2023-04-02T05:14:36.058Z,990.77
2023-04-02T05:15:36.435Z,990.81
2023-04-02T05:16:36.150Z,990.84
2023-04-02T05:17:36.111Z,990.88
2023-04-02T05:18:36.067Z,990.85
2023-04-02T05:19:36.029Z,990.90
2023-04-02T05:20:36.029Z,991.00
2023-04-02T05:21:36.063Z,991.02
2023-04-02T05:22:36.003Z,991.01
2023-04-02T05:23:36.529Z,991.02
2023-04-02T05:24:35.976Z,991.06
2023-04-02T05:25:36.139Z,991.11
2023-04-02T05:26:35.954Z,991.14
2023-04-02T05:27:35.929Z,991.15
2023-04-02T05:28:36.686Z,991.18
2023-04-02T05:29:35.902Z,991.15
2023-04-02T05:30:35.961Z,991.25
2023-04-02T05:31:36.005Z,991.23
2023-04-02T05:32:35.937Z,991.29
2023-04-02T05:33:35.911Z,991.25
2023-04-02T05:34:35.911Z,991.28
2023-04-02T05:35:36.148Z,991.37
2023-04-02T05:36:35.829Z,991.37
2023-04-02T05:37:35.879Z,991.38
2023-04-02T05:38:35.926Z,991.38
2023-04-02T05:39:35.833Z,991.42
2023-04-02T05:40:35.792Z,991.46
2023-04-02T05:41:35.792Z,991.48
2023-04-02T05:42:35.804Z,991.50
2023-04-02T05:43:35.766Z,991.57
2023-04-02T05:44:38.604Z,991.53
2023-04-02T05:45:35.871Z,991.56
2023-04-02T05:46:35.736Z,991.61
2023-04-02T05:47:35.761Z,991.61
2023-04-02T05:48:35.742Z,991.67
2023-04-02T05:49:35.722Z,991.66
2023-04-02T05:50:35.667Z,991.65
2023-04-02T05:51:35.660Z,991.67
2023-04-02T05:52:35.681Z,991.65
2023-04-02T05:53:35.681Z,991.71
2023-04-02T05:54:35.679Z,991.75
2023-04-02T05:55:35.984Z,991.70
2023-04-02T05:56:35.620Z,991.75
2023-04-02T05:57:43.863Z,991.82
2023-04-02T05:58:37.680Z,991.81
2023-04-02T05:59:36.607Z,991.81
2023-04-02T06:00:35.578Z,991.83
2023-04-02T06:01:35.655Z,991.93
2023-04-02T06:02:35.660Z,991.91
2023-04-02T06:03:35.654Z,991.95
2023-04-02T06:04:35.566Z,991.91
2023-04-02T06:05:35.773Z,992.00
2023-04-02T06:06:35.500Z,992.03
2023-04-02T06:07:35.497Z,992.00
2023-04-02T06:08:35.501Z,991.99
2023-04-02T06:09:35.475Z,992.06
2023-04-02T06:10:35.483Z,992.14
2023-04-02T06:11:35.497Z,992.13
2023-04-02T06:12:35.433Z,992.09
2023-04-02T06:13:35.427Z,992.13
2023-04-02T06:14:35.407Z,992.19
2023-04-02T06:15:35.614Z,992.22
2023-04-02T06:16:35.473Z,992.18
2023-04-02T06:17:35.386Z,992.24
2023-04-02T06:18:35.379Z,992.27
2023-04-02T06:19:35.351Z,992.30
2023-04-02T06:20:35.409Z,992.38
2023-04-02T06:21:35.365Z,992.38
2023-04-02T06:22:35.364Z,992.38
2023-04-02T06:23:35.375Z,992.41
2023-04-02T06:24:35.317Z,992.41
2023-04-02T06:25:35.541Z,992.43
2023-04-02T06:26:35.306Z,992.50
2023-04-02T06:27:35.312Z,992.53
2023-04-02T06:28:35.300Z,992.49
2023-04-02T06:29:35.280Z,992.60
2023-04-02T06:30:35.328Z,992.57
2023-04-02T06:31:35.227Z,992.60
2023-04-02T06:32:35.262Z,992.62
2023-04-02T06:33:35.242Z,992.66
2023-04-02T06:34:35.241Z,992.68
2023-04-02T06:35:36.337Z,992.76
2023-04-02T06:36:35.187Z,992.75
2023-04-02T06:37:35.192Z,992.82
2023-04-02T06:38:35.270Z,992.82
2023-04-02T06:39:35.149Z,992.83
2023-04-02T06:40:35.214Z,992.90
2023-04-02T06:41:35.139Z,992.86
2023-04-02T06:42:35.118Z,992.92
2023-04-02T06:43:35.130Z,992.96
2023-04-02T06:44:35.103Z,993.01
2023-04-02T06:45:35.407Z,993.00
2023-04-02T06:46:35.154Z,993.02
2023-04-02T06:47:35.114Z,992.98
2023-04-02T06:48:35.064Z,992.99
2023-04-02T06:49:35.054Z,993.04
2023-04-02T06:50:35.066Z,993.06
2023-04-02T06:51:35.090Z,993.08
2023-04-02T06:52:35.693Z,993.02
2023-04-02T06:53:35.013Z,993.16
2023-04-02T06:54:35.138Z,993.23
2023-04-02T06:55:35.453Z,993.16
2023-04-02T06:56:35.030Z,993.20
2023-04-02T06:57:35.082Z,993.26
2023-04-02T06:58:34.950Z,993.29
2023-04-02T06:59:34.950Z,993.30
2023-04-02T07:00:34.927Z,993.29
2023-04-02T07:01:34.957Z,993.38
2023-04-02T07:02:35.068Z,993.41
2023-04-02T07:03:34.905Z,993.41
2023-04-02T07:04:34.945Z,993.42
2023-04-02T07:05:35.216Z,993.48
2023-04-02T07:06:34.859Z,993.54
2023-04-02T07:07:34.848Z,993.50
2023-04-02T07:08:34.847Z,993.56
2023-04-02T07:09:34.863Z,993.56
2023-04-02T07:10:34.838Z,993.59
2023-04-02T07:11:34.828Z,993.63
2023-04-02T07:12:34.821Z,993.69
2023-04-02T07:13:34.801Z,993.69
2023-04-02T07:14:34.809Z,993.65
2023-04-02T07:15:35.088Z,993.69
2023-04-02T07:16:34.782Z,993.67
2023-04-02T07:17:35.634Z,993.66
2023-04-02T07:18:34.818Z,993.71
2023-04-02T07:19:34.728Z,993.67
2023-04-02T07:20:34.710Z,993.76
2023-04-02T07:21:34.699Z,993.83
2023-04-02T07:22:34.700Z,993.77
2023-04-02T07:23:34.684Z,993.75
2023-04-02T07:24:34.683Z,993.83
2023-04-02T07:25:35.129Z,993.82
2023-04-02T07:26:34.684Z,993.82
2023-04-02T07:27:34.648Z,993.88
2023-04-02T07:28:34.640Z,993.86
2023-04-02T07:29:34.608Z,993.98
2023-04-02T07:30:34.628Z,993.92
2023-04-02T07:31:34.646Z,994.01
2023-04-02T07:32:34.633Z,993.96
2023-04-02T07:33:34.589Z,994.01
2023-04-02T07:34:34.572Z,994.04
2023-04-02T07:35:34.849Z,993.99
2023-04-02T07:36:34.739Z,994.07
2023-04-02T07:37:34.536Z,994.10
2023-04-02T07:38:34.550Z,994.07
2023-04-02T07:39:36.809Z,994.11
2023-04-02T07:40:34.543Z,994.10
2023-04-02T07:41:34.539Z,994.19
2023-04-02T07:42:34.481Z,994.14
2023-04-02T07:43:34.485Z,994.20
2023-04-02T07:44:34.533Z,994.23
2023-04-02T07:45:34.681Z,994.23
2023-04-02T07:46:34.513Z,994.26
2023-04-02T07:47:34.761Z,994.27
2023-04-02T07:48:34.443Z,994.26
2023-04-02T07:49:34.437Z,994.34
2023-04-02T07:50:34.397Z,994.39
2023-04-02T07:51:34.407Z,994.34
2023-04-02T07:52:34.379Z,994.36
2023-04-02T07:53:34.394Z,994.43
2023-04-02T07:54:34.411Z,994.37
2023-04-02T07:55:34.504Z,994.48
2023-04-02T07:56:34.394Z,994.49
2023-04-02T07:57:34.336Z,994.52
2023-04-02T07:58:34.308Z,994.55
2023-04-02T07:59:34.314Z,994.56
2023-04-02T08:00:34.293Z,994.55
2023-04-02T08:01:34.313Z,994.56
2023-04-02T08:02:34.347Z,994.58
2023-04-02T08:03:34.332Z,994.61
2023-04-02T08:04:34.306Z,994.63
2023-04-02T08:05:34.433Z,994.61
2023-04-02T08:06:34.240Z,994.70
2023-04-02T08:07:34.290Z,994.70
2023-04-02T08:08:34.196Z,994.75
2023-04-02T08:09:34.173Z,994.80
2023-04-02T08:10:34.296Z,994.80
2023-04-02T08:11:34.172Z,994.84
2023-04-02T08:12:34.216Z,994.82
2023-04-02T08:13:34.165Z,994.87
2023-04-02T08:14:34.458Z,994.91
2023-04-02T08:15:34.313Z,994.93
2023-04-02T08:16:34.281Z,994.97
2023-04-02T08:17:34.148Z,994.93
2023-04-02T08:18:34.131Z,994.97
2023-04-02T08:19:41.564Z,995.04
2023-04-02T08:20:36.096Z,994.95
2023-04-02T08:21:34.073Z,995.02
2023-04-02T08:22:34.070Z,995.05
2023-04-02T08:23:34.040Z,995.07
2023-04-02T08:24:34.037Z,995.09
2023-04-02T08:25:34.335Z,995.05
2023-04-02T08:26:34.009Z,995.13
2023-04-02T08:27:34.009Z,995.15
2023-04-02T08:28:33.994Z,995.11
2023-04-02T08:29:33.998Z,995.17
2023-04-02T08:30:34.039Z,995.14
2023-04-02T08:31:33.946Z,995.21
2023-04-02T08:32:33.997Z,995.19
2023-04-02T08:33:33.992Z,995.19
2023-04-02T08:34:33.978Z,995.25
2023-04-02T08:35:34.433Z,995.21
2023-04-02T08:36:33.891Z,995.23
2023-04-02T08:37:33.897Z,995.31
2023-04-02T08:38:33.941Z,995.31
2023-04-02T08:39:33.886Z,995.29
2023-04-02T08:40:33.864Z,995.30
2023-04-02T08:41:33.874Z,995.26
2023-04-02T08:42:33.896Z,995.33
2023-04-02T08:43:34.000Z,995.34
2023-04-02T08:44:33.821Z,995.34
2023-04-02T08:45:33.785Z,995.25
2023-04-02T08:46:33.903Z,995.31
2023-04-02T08:47:33.857Z,995.33
2023-04-02T08:48:33.837Z,995.35
2023-04-02T08:49:33.754Z,995.36
2023-04-02T08:50:33.732Z,995.35
2023-04-02T08:51:33.729Z,995.34
2023-04-02T08:52:33.875Z,995.38
2023-04-02T08:53:33.745Z,995.38
2023-04-02T08:54:34.861Z,995.45
2023-04-02T08:55:33.918Z,995.48
2023-04-02T08:56:33.706Z,995.46
2023-04-02T08:57:33.726Z,995.51
2023-04-02T08:58:33.696Z,995.55
2023-04-02T08:59:33.686Z,995.58
2023-04-02T09:00:34.119Z,995.59
2023-04-02T09:01:33.657Z,995.54
2023-04-02T09:02:33.633Z,995.63
2023-04-02T09:03:33.650Z,995.63
2023-04-02T09:04:33.625Z,995.65
2023-04-02T09:05:34.102Z,995.63
2023-04-02T09:06:33.630Z,995.69
2023-04-02T09:07:33.700Z,995.61
2023-04-02T09:08:33.657Z,995.68
2023-04-02T09:09:33.620Z,995.75
2023-04-02T09:10:33.616Z,995.74
2023-04-02T09:11:33.639Z,995.81
2023-04-02T09:12:33.498Z,995.78
2023-04-02T09:13:33.537Z,995.82
2023-04-02T09:14:33.548Z,995.83
2023-04-02T09:15:33.688Z,995.82
2023-04-02T09:16:33.510Z,995.86
2023-04-02T09:17:42.717Z,995.89
2023-04-02T09:18:35.917Z,995.93
2023-04-02T09:19:33.419Z,995.97
2023-04-02T09:20:33.504Z,995.99
2023-04-02T09:21:33.516Z,996.01
2023-04-02T09:22:33.493Z,996.03
2023-04-02T09:23:33.440Z,996.08
2023-04-02T09:24:33.394Z,996.09
2023-04-02T09:25:33.669Z,996.14
2023-04-02T09:26:33.418Z,996.16
2023-04-02T09:27:33.410Z,996.18
2023-04-02T09:28:33.397Z,996.16
2023-04-02T09:29:33.412Z,996.22
2023-04-02T09:30:33.391Z,996.21
2023-04-02T09:31:33.400Z,996.22
2023-04-02T09:32:33.369Z,996.30
2023-04-02T09:33:33.337Z,996.30
2023-04-02T09:34:33.386Z,996.29
2023-04-02T09:35:33.251Z,996.31
2023-04-02T09:36:33.339Z,996.34
2023-04-02T09:37:33.358Z,996.35
2023-04-02T09:38:33.369Z,996.32
2023-04-02T09:39:33.251Z,996.35
2023-04-02T09:40:33.328Z,996.44
2023-04-02T09:41:34.591Z,996.33
2023-04-02T09:42:33.204Z,996.40
2023-04-02T09:43:34.194Z,996.50
2023-04-02T09:44:33.208Z,996.46
2023-04-02T09:45:33.426Z,996.43
2023-04-02T09:46:33.214Z,996.52
2023-04-02T09:47:33.318Z,996.56
2023-04-02T09:48:33.223Z,996.52
2023-04-02T09:49:33.098Z,996.46
2023-04-02T09:50:33.147Z,996.50
2023-04-02T09:51:33.138Z,996.51
2023-04-02T09:52:33.053Z,996.49
2023-04-02T09:53:33.070Z,996.51
2023-04-02T09:54:33.039Z,996.52
2023-04-02T09:55:33.024Z,996.53
2023-04-02T09:56:33.023Z,996.56
2023-04-02T09:57:33.052Z,996.58
2023-04-02T09:58:32.994Z,996.62
2023-04-02T09:59:33.039Z,996.60
2023-04-02T10:00:33.002Z,996.63
2023-04-02T10:01:33.066Z,996.67
2023-04-02T10:02:33.040Z,996.70
2023-04-02T10:03:32.955Z,996.68
2023-04-02T10:04:33.011Z,996.80
2023-04-02T10:05:40.633Z,996.79
2023-04-02T10:06:34.906Z,996.72
2023-04-02T10:07:32.915Z,996.77
2023-04-02T10:08:32.876Z,996.77
2023-04-02T10:09:32.894Z,996.81
2023-04-02T10:10:32.941Z,996.82
2023-04-02T10:11:40.133Z,996.84
2023-04-02T10:12:34.864Z,996.90
2023-04-02T10:13:32.828Z,996.91
2023-04-02T10:14:32.837Z,996.87
2023-04-02T10:15:32.854Z,996.88
2023-04-02T10:16:32.883Z,996.96
2023-04-02T10:17:32.898Z,997.02
2023-04-02T10:18:32.790Z,997.01
2023-04-02T10:19:32.728Z,997.02
2023-04-02T10:20:39.086Z,997.05
2023-04-02T10:21:34.790Z,997.01
2023-04-02T10:22:32.746Z,997.08
2023-04-02T10:23:32.697Z,997.13
2023-04-02T10:24:32.715Z,997.07
2023-04-02T10:25:32.757Z,997.05
2023-04-02T10:26:32.733Z,997.12
2023-04-02T10:27:32.688Z,997.04
2023-04-02T10:28:32.915Z,997.08
2023-04-02T10:29:32.670Z,997.12
2023-04-02T10:30:32.645Z,997.14
2023-04-02T10:31:32.662Z,997.11
2023-04-02T10:32:32.683Z,997.20
2023-04-02T10:33:33.108Z,997.20
2023-04-02T10:34:33.218Z,997.24
2023-04-02T10:35:32.625Z,997.24
2023-04-02T10:36:32.563Z,997.28
2023-04-02T10:37:32.545Z,997.30
2023-04-02T10:38:32.549Z,997.27
2023-04-02T10:39:32.584Z,997.31
2023-04-02T10:40:32.566Z,997.34
2023-04-02T10:41:32.567Z,997.36
2023-04-02T10:42:32.510Z,997.41
2023-04-02T10:43:32.585Z,997.40
2023-04-02T10:44:33.869Z,997.39
2023-04-02T10:45:33.359Z,997.39
2023-04-02T10:46:32.776Z,997.37
2023-04-02T10:47:32.516Z,997.40
2023-04-02T10:48:32.459Z,997.43
2023-04-02T10:49:32.626Z,997.41
2023-04-02T10:50:32.518Z,997.42
2023-04-02T10:51:33.144Z,997.48
2023-04-02T10:52:32.431Z,997.42
2023-04-02T10:53:32.392Z,997.47
2023-04-02T10:54:32.516Z,997.48
2023-04-02T10:55:33.812Z,997.50
2023-04-02T10:56:44.098Z,997.56
2023-04-02T10:57:34.537Z,997.51
2023-04-02T10:59:04.862Z,997.51
2023-04-02T10:59:32.378Z,997.57
2023-04-02T11:00:32.437Z,997.58
2023-04-02T11:01:32.486Z,997.63
2023-04-02T11:02:32.483Z,997.53
2023-04-02T11:03:32.519Z,997.58
2023-04-02T11:04:32.335Z,997.51
2023-04-02T11:05:32.279Z,997.59
2023-04-02T11:06:32.343Z,997.60
2023-04-02T11:07:32.468Z,997.58
2023-04-02T11:08:32.290Z,997.66
2023-04-02T11:09:32.295Z,997.67
2023-04-02T11:10:32.223Z,997.67
2023-04-02T11:11:32.282Z,997.72
2023-04-02T11:12:32.230Z,997.71
2023-04-02T11:13:32.216Z,997.68
2023-04-02T11:14:32.403Z,997.71
2023-04-02T11:15:32.258Z,997.78
2023-04-02T11:16:32.222Z,997.82
2023-04-02T11:17:32.165Z,997.75
2023-04-02T11:18:32.163Z,997.82
2023-04-02T11:20:54.592Z,997.79
2023-04-02T11:20:56.095Z,997.89
2023-04-02T11:22:00.042Z,997.82
2023-04-02T11:22:58.151Z,997.89
2023-04-02T11:23:56.351Z,997.88
2023-04-02T11:24:56.046Z,997.88
2023-04-02T11:25:56.680Z,998.01
2023-04-02T11:26:56.116Z,998.01
2023-04-02T11:27:56.100Z,997.99
2023-04-02T11:28:56.075Z,998.09
2023-04-02T11:29:56.559Z,998.05
2023-04-02T11:30:56.030Z,998.08
2023-04-02T11:31:56.136Z,998.05
2023-04-02T11:32:56.062Z,998.01
2023-04-02T11:33:55.994Z,998.08
2023-04-02T11:35:06.347Z,998.06
2023-04-02T11:35:58.092Z,998.07
2023-04-02T11:36:55.952Z,998.05
2023-04-02T11:37:56.071Z,998.11
2023-04-02T11:39:04.420Z,998.14
2023-04-02T11:41:21.380Z,998.11
2023-04-02T11:41:22.891Z,998.11
2023-04-02T11:42:23.182Z,998.16
2023-04-02T11:43:22.875Z,998.15
2023-04-02T11:44:22.872Z,998.23
2023-04-02T11:45:22.980Z,998.11
2023-04-02T11:46:22.954Z,998.22
2023-04-02T11:47:22.998Z,998.18
2023-04-02T11:48:22.835Z,998.20
2023-04-02T11:49:22.779Z,998.21
2023-04-02T11:50:22.798Z,998.15
2023-04-02T11:51:22.756Z,998.21
2023-04-02T11:52:22.815Z,998.24
2023-04-02T11:53:22.750Z,998.25
2023-04-02T11:54:22.734Z,998.25
2023-04-02T11:55:22.770Z,998.15
2023-04-02T11:56:22.718Z,998.31
2023-04-02T11:57:22.768Z,998.25
2023-04-02T11:58:22.762Z,998.24
2023-04-02T11:59:22.722Z,998.29
2023-04-02T12:00:22.666Z,998.27
2023-04-02T12:01:22.712Z,998.33
2023-04-02T12:02:22.720Z,998.32
2023-04-02T12:03:22.654Z,998.33
2023-04-02T12:04:22.650Z,998.34
2023-04-02T12:05:22.809Z,998.31
2023-04-02T12:06:22.630Z,998.35
2023-04-02T12:07:22.617Z,998.37
2023-04-02T12:08:22.748Z,998.38
2023-04-02T12:09:22.673Z,998.45
2023-04-02T12:10:22.535Z,998.47
2023-04-02T12:11:22.588Z,998.54
2023-04-02T12:12:22.556Z,998.48
2023-04-02T12:13:22.546Z,998.38
2023-04-02T12:14:22.583Z,998.48
2023-04-02T12:15:22.496Z,998.60
2023-04-02T12:16:22.575Z,998.57
2023-04-02T12:17:22.531Z,998.61
2023-04-02T12:18:22.515Z,998.57
2023-04-02T12:19:22.491Z,998.65
2023-04-02T12:20:22.524Z,998.60
2023-04-02T12:21:22.426Z,998.60
2023-04-02T12:22:22.397Z,998.62
2023-04-02T12:23:22.403Z,998.64
2023-04-02T12:24:22.368Z,998.72
2023-04-02T12:25:22.483Z,998.68
2023-04-02T12:26:23.120Z,998.66
2023-04-02T12:27:23.399Z,998.70
2023-04-02T12:28:22.362Z,998.75
2023-04-02T12:29:22.353Z,998.75